Time;durP1;ratioP1;P1;durP2;ratioP2;P2;SDS_P1;SDS_P2;PMS_P1;PMS_P2;Temp;Humidity;BMP_temperature;BMP_pressure;BME280_temperature;BME280_humidity;BME280_pressure;Samples;Min_cycle;Max_cycle;Signal;HPM_P1;HPM_P2
2023/11/01 00:04:21;;;;;;;8.70;5.50;;;;;;;9.75;90.03;97709.08;435094;1257;109630;-40
2023/11/01 00:14:25;;;;;;;10.70;6.00;;;;;;;9.57;90.24;97711.85;435178;1254;108208;-40
2023/11/01 00:24:29;;;;;;;7.70;5.60;;;;;;;9.42;90.18;97721.31;435188;1257;97871;-39
2023/11/01 00:34:32;;;;;;;7.90;5.80;;;;;;;9.23;89.92;97741.13;435028;1253;98375;-40
2023/11/01 00:44:36;;;;;;;7.70;5.40;;;;;;;9.18;89.87;97754.95;434807;1257;420408;-41
2023/11/01 01:04:47;;;;;;;10.10;5.10;;;;;;;9.17;90.39;97774.04;435055;1254;108143;-40
2023/11/01 01:14:50;;;;;;;6.50;5.50;;;;;;;9.23;90.74;97779.14;435055;1257;97902;-40
2023/11/01 01:24:54;;;;;;;6.50;5.90;;;;;;;9.31;90.76;97781.64;435153;1257;110713;-39
2023/11/01 01:45:00;;;;;;;5.60;4.60;;;;;;;9.45;91.24;97792.70;435299;1257;98523;-39
2023/11/01 02:05:10;;;;;;;9.50;5.10;;;;;;;9.51;91.51;97802.77;434968;1253;97915;-40
2023/11/01 02:15:13;;;;;;;6.50;4.60;;;;;;;9.54;91.56;97800.86;436054;1247;108997;-40
2023/11/01 02:25:17;;;;;;;10.00;5.40;;;;;;;9.56;91.63;97805.68;435256;1253;109315;-40
2023/11/01 02:35:21;;;;;;;5.00;4.20;;;;;;;9.58;91.87;97808.57;435477;1253;97904;-40
2023/11/01 02:45:25;;;;;;;5.10;4.60;;;;;;;9.64;91.79;97816.71;435366;1253;106442;-41
2023/11/01 02:55:29;;;;;;;6.30;5.30;;;;;;;9.64;91.66;97820.83;435437;1249;97716;-41
2023/11/01 03:05:33;;;;;;;5.70;5.10;;;;;;;9.59;91.79;97832.23;435493;1253;111505;-41
2023/11/01 03:25:40;;;;;;;5.20;4.40;;;;;;;9.75;91.60;97845.50;435333;1250;96624;-41
2023/11/01 03:35:43;;;;;;;5.20;3.90;;;;;;;9.76;91.49;97851.01;435456;1254;109455;-40
2023/11/01 03:45:47;;;;;;;6.30;5.70;;;;;;;9.71;91.49;97857.48;435452;1249;97892;-40
2023/11/01 03:55:50;;;;;;;7.80;6.10;;;;;;;9.65;91.64;97861.71;435343;1253;110426;-41
2023/11/01 04:05:54;;;;;;;5.60;4.60;;;;;;;9.64;91.52;97866.61;435188;1254;108343;-41
2023/11/01 04:15:58;;;;;;;4.50;4.10;;;;;;;9.61;91.38;97872.63;435456;1250;97982;-41
2023/11/01 04:26:02;;;;;;;5.70;5.20;;;;;;;9.67;91.49;97866.60;435326;1254;107972;-39
2023/11/01 04:46:09;;;;;;;6.90;6.20;;;;;;;9.50;91.45;97870.70;435300;1252;110849;-47
2023/11/01 04:56:13;;;;;;;7.40;6.70;;;;;;;9.51;91.69;97877.03;435346;1271;107925;-40
2023/11/01 05:06:17;;;;;;;8.50;7.40;;;;;;;9.52;91.71;97886.66;435252;1253;97889;-40
2023/11/01 05:16:21;;;;;;;13.10;9.70;;;;;;;9.52;91.68;97898.48;435190;1254;107695;-41
2023/11/01 05:26:25;;;;;;;9.40;8.40;;;;;;;9.53;91.75;97909.85;435262;1253;97897;-40
2023/11/01 05:36:29;;;;;;;11.00;7.30;;;;;;;9.50;91.64;97919.46;435293;1253;110507;-40
2023/11/01 05:46:32;;;;;;;11.90;10.00;;;;;;;9.42;91.80;97927.75;435426;1251;109173;-41
2023/11/01 05:56:36;;;;;;;9.30;8.10;;;;;;;9.41;91.78;97940.55;435332;1253;98101;-39
2023/11/01 06:06:40;;;;;;;8.70;7.50;;;;;;;9.43;91.89;97948.20;435418;1252;108072;-40
2023/11/01 06:16:44;;;;;;;7.40;6.40;;;;;;;9.52;91.82;97960.35;435334;1253;96657;-41
2023/11/01 06:26:47;;;;;;;13.10;9.60;;;;;;;9.58;91.80;97973.16;435491;1250;110454;-41
2023/11/01 06:36:50;;;;;;;11.00;8.60;;;;;;;9.56;91.82;97984.05;435424;1253;108156;-39
2023/11/01 06:46:53;;;;;;;11.80;7.50;;;;;;;9.58;91.55;97992.78;435319;1252;97998;-42
2023/11/01 06:56:56;;;;;;;7.90;7.00;;;;;;;9.59;91.58;98000.04;435316;1264;109941;-39
2023/11/01 07:07:00;;;;;;;7.10;6.00;;;;;;;10.37;92.41;98009.79;435366;1249;96660;-40
2023/11/01 07:27:07;;;;;;;9.60;6.20;;;;;;;12.27;90.17;98018.80;435550;1253;108276;-41
2023/11/01 07:37:11;;;;;;;8.40;5.50;;;;;;;12.18;90.25;98017.17;435258;1250;96646;-41
2023/11/01 07:47:14;;;;;;;10.70;5.40;;;;;;;12.54;88.66;98017.48;435324;1249;108541;-40
2023/11/01 07:57:19;;;;;;;8.70;6.00;;;;;;;11.91;87.77;98008.11;435316;1249;97877;-40
2023/11/01 08:07:22;;;;;;;7.40;3.40;;;;;;;11.91;88.01;98015.64;435458;1253;111168;-40
2023/11/01 08:17:25;;;;;;;5.30;3.50;;;;;;;11.78;86.86;98016.88;435236;1250;106686;-40
2023/11/01 08:27:29;;;;;;;10.40;4.60;;;;;;;11.74;86.73;98031.98;435391;1251;97579;-40
2023/11/01 08:37:33;;;;;;;4.60;3.50;;;;;;;11.76;86.40;98034.61;435314;1255;96735;-41
2023/11/01 08:47:39;;;;;;;7.60;3.50;;;;;;;11.72;85.83;98038.80;435471;1253;107196;-40
2023/11/01 08:57:44;;;;;;;4.60;3.50;;;;;;;11.99;86.30;98040.88;435414;1250;97508;-41
2023/11/01 09:07:47;;;;;;;5.90;3.80;;;;;;;12.30;85.70;98050.59;435599;1249;107696;-40
2023/11/01 09:17:54;;;;;;;5.30;3.00;;;;;;;12.40;84.83;98055.91;435340;1252;97709;-40
2023/11/01 09:38:01;;;;;;;5.20;1.90;;;;;;;13.50;84.41;98050.44;435472;1254;96637;-40
2023/11/01 09:48:05;;;;;;;7.10;2.10;;;;;;;13.79;82.87;98040.23;435431;1253;98013;-40
2023/11/01 09:58:10;;;;;;;5.10;3.60;;;;;;;13.79;82.51;98045.61;435445;1253;109588;-39
2023/11/01 10:08:12;;;;;;;3.40;2.30;;;;;;;13.43;80.96;98052.87;435437;1253;107768;-41
2023/11/01 10:18:16;;;;;;;3.40;2.00;;;;;;;13.35;80.72;98050.45;435351;1250;97924;-40
2023/11/01 10:28:20;;;;;;;3.10;2.40;;;;;;;13.49;80.16;98036.91;435328;1252;109410;-41
2023/11/01 10:38:23;;;;;;;5.00;2.10;;;;;;;13.77;79.72;98026.36;435146;1251;97964;-42
2023/11/01 10:58:34;;;;;;;4.80;1.50;;;;;;;14.00;78.07;98020.37;435468;1250;97986;-40
2023/11/01 11:08:38;;;;;;;5.00;2.20;;;;;;;13.87;77.08;98022.19;435395;1252;97886;-39
2023/11/01 11:19:02;;;;;;;2.30;1.90;;;;;;;13.87;77.59;98017.17;435280;1250;109089;-40
2023/11/01 11:29:11;;;;;;;3.10;2.00;;;;;;;14.24;77.31;98024.55;435437;1250;107285;-40
2023/11/01 11:39:14;;;;;;;3.60;2.20;;;;;;;14.07;76.06;98026.85;435377;1253;97867;-39
2023/11/01 11:59:26;;;;;;;3.60;2.10;;;;;;;13.73;76.12;98013.88;435366;1256;97823;-41
2023/11/01 12:09:30;;;;;;;4.70;2.50;;;;;;;13.62;75.59;98014.49;435299;1250;111001;-41
2023/11/01 12:19:42;;;;;;;2.40;1.90;;;;;;;13.60;75.60;98010.77;435511;1253;97892;-40
2023/11/01 12:29:47;;;;;;;3.90;2.30;;;;;;;13.74;75.86;98007.07;435193;1249;97925;-42
2023/11/01 12:40:00;;;;;;;5.50;2.80;;;;;;;13.82;75.04;97996.98;434976;1254;437615;-41
2023/11/01 12:50:05;;;;;;;3.80;2.40;;;;;;;13.83;74.69;97988.48;435427;1250;107330;-41
2023/11/01 13:20:18;;;;;;;4.00;2.80;;;;;;;13.76;75.76;97977.89;435421;1250;96648;-42
2023/11/01 13:30:22;;;;;;;4.40;2.60;;;;;;;13.71;75.24;97986.92;435318;1250;110372;-40
2023/11/01 13:40:26;;;;;;;5.00;2.80;;;;;;;13.55;75.28;97990.15;435502;1249;107724;-40
2023/11/01 14:00:32;;;;;;;7.20;3.80;;;;;;;13.44;75.92;97976.65;435375;1253;107889;-40
2023/11/01 14:20:40;;;;;;;5.90;4.20;;;;;;;13.03;75.75;97958.97;435386;1251;110741;-42
2023/11/01 14:30:43;;;;;;;6.00;4.20;;;;;;;12.78;76.03;97956.13;435325;1252;97887;-40
2023/11/01 14:40:48;;;;;;;8.90;4.80;;;;;;;12.56;76.16;97958.36;435270;1253;98505;-40
2023/11/01 14:50:51;;;;;;;7.70;5.40;;;;;;;12.35;76.61;97955.77;435513;1253;110458;-41
2023/11/01 15:00:56;;;;;;;12.50;7.10;;;;;;;12.09;76.86;97953.08;435287;1251;108350;-41
2023/11/01 15:11:03;;;;;;;12.00;6.50;;;;;;;11.85;77.02;97942.37;435468;1254;96625;-41
2023/11/01 15:31:10;;;;;;;10.50;6.40;;;;;;;11.39;77.43;97939.11;435455;1253;97844;-40
2023/11/01 15:41:14;;;;;;;18.60;10.40;;;;;;;11.07;77.78;97927.27;435467;1251;109915;-41
2023/11/01 15:51:17;;;;;;;25.00;14.20;;;;;;;10.73;77.86;97924.06;435336;1254;97978;-40
2023/11/01 16:01:20;;;;;;;21.60;11.20;;;;;;;10.60;78.37;97920.41;435579;1256;97880;-41
2023/11/01 16:11:24;;;;;;;21.40;11.00;;;;;;;10.44;78.72;97921.81;435418;1253;111413;-41
2023/11/01 16:21:27;;;;;;;25.10;13.50;;;;;;;10.30;79.35;97920.46;435300;1254;107480;-41
2023/11/01 16:31:31;;;;;;;23.20;15.00;;;;;;;10.16;79.48;97917.73;435622;1254;97903;-42
2023/11/01 16:41:35;;;;;;;33.40;19.40;;;;;;;9.91;79.80;97919.67;435512;1254;97854;-41
2023/11/01 16:51:39;;;;;;;40.60;21.00;;;;;;;9.82;79.96;97916.81;435109;1255;108768;-42
2023/11/01 17:01:42;;;;;;;43.50;24.40;;;;;;;9.71;80.48;97915.51;435258;1253;97864;-40
2023/11/01 17:11:44;;;;;;;49.20;29.10;;;;;;;9.77;80.83;97917.08;435394;1253;107709;-41
2023/11/01 17:31:52;;;;;;;50.50;27.90;;;;;;;9.35;81.22;97912.45;435488;1259;110564;-39
2023/11/01 18:02:38;;;;;;;47.50;29.20;;;;;;;8.99;81.94;97904.09;435344;1254;108380;-40
2023/11/01 18:12:41;;;;;;;46.90;27.40;;;;;;;8.94;82.22;97896.13;435314;1264;97871;-40
2023/11/01 18:22:45;;;;;;;47.80;27.80;;;;;;;8.88;82.46;97884.90;435379;1264;110522;-41
2023/11/01 18:32:48;;;;;;;45.40;27.00;;;;;;;8.80;82.68;97878.86;435285;1255;108027;-41
2023/11/01 18:42:57;;;;;;;38.20;25.80;;;;;;;8.63;82.93;97867.95;435585;1254;97850;-41
2023/11/01 19:03:07;;;;;;;39.30;25.70;;;;;;;8.41;83.33;97862.78;435358;1251;97864;-40
2023/11/01 19:13:14;;;;;;;47.70;27.90;;;;;;;8.39;83.53;97860.11;435261;1254;110377;-40
2023/11/01 19:23:18;;;;;;;47.30;28.30;;;;;;;8.29;83.52;97858.74;435240;1254;107697;-40
2023/11/01 19:33:22;;;;;;;46.90;27.20;;;;;;;8.17;83.74;97862.27;435260;1253;97884;-40
2023/11/01 19:53:40;;;;;;;54.30;32.70;;;;;;;7.79;84.36;97858.12;435454;1251;96685;-41
2023/11/01 20:23:51;;;;;;;51.80;31.20;;;;;;;7.54;84.82;97833.45;435323;1263;97861;-41
2023/11/01 20:33:54;;;;;;;48.20;31.30;;;;;;;7.57;85.05;97821.11;435296;1251;107980;-41
2023/11/01 20:43:58;;;;;;;57.90;33.10;;;;;;;7.54;85.25;97812.20;435418;1254;97896;-40
2023/11/01 20:54:02;;;;;;;61.20;30.90;;;;;;;7.57;85.40;97799.59;435294;1263;112091;-41
2023/11/01 21:04:06;;;;;;;64.30;34.80;;;;;;;7.52;85.44;97786.47;435439;1250;107270;-41
2023/11/01 21:14:11;;;;;;;52.40;31.10;;;;;;;7.41;85.67;97785.63;435387;1254;97464;-41
2023/11/01 21:24:16;;;;;;;56.00;33.00;;;;;;;7.31;85.84;97788.65;435358;1254;97893;-41
2023/11/01 21:44:30;;;;;;;48.20;28.10;;;;;;;7.26;86.18;97786.90;435339;1254;97733;-41
2023/11/01 21:54:35;;;;;;;48.10;26.90;;;;;;;7.24;86.53;97782.48;435346;1272;107376;-41
2023/11/01 22:04:42;;;;;;;53.80;29.30;;;;;;;7.23;86.55;97784.31;435385;1254;97868;-41
2023/11/01 22:24:47;;;;;;;55.70;33.10;;;;;;;7.15;86.80;97775.61;435456;1254;107362;-40
2023/11/01 22:34:51;;;;;;;61.00;34.60;;;;;;;6.94;87.02;97774.17;435319;1251;96625;-40
2023/11/01 22:44:54;;;;;;;56.60;32.60;;;;;;;6.85;87.18;97754.65;435342;1254;107625;-42
2023/11/01 22:54:58;;;;;;;58.30;31.80;;;;;;;6.81;87.01;97744.81;435376;1254;97864;-41
2023/11/01 23:05:02;;;;;;;53.10;29.40;;;;;;;6.75;87.28;97733.02;435511;1256;110472;-41
2023/11/01 23:15:08;;;;;;;52.00;29.00;;;;;;;6.71;87.35;97720.25;435277;1250;107751;-39
2023/11/01 23:25:13;;;;;;;50.70;28.60;;;;;;;6.63;87.49;97715.52;435443;1253;97874;-40
2023/11/01 23:35:18;;;;;;;51.00;28.30;;;;;;;6.54;87.52;97714.09;435411;1253;108134;-41
2023/11/01 23:46:06;;;;;;;54.40;29.50;;;;;;;6.48;87.89;97702.35;435407;1254;97883;-40
2023/11/01 23:56:12;;;;;;;49.70;26.60;;;;;;;6.62;88.12;97691.04;435162;1255;109961;-40
